sensor_id;sensor_type;location;lat;lon;timestamp;pressure;altitude;pressure_sealevel;temperature;humidity
52651;BME280;38537;47.226;39.702;2023-08-08T00:02:20;99788.84;;;26.64;61.28
52651;BME280;38537;47.226;39.702;2023-08-08T00:04:49;99805.69;;;26.62;61.56
52651;BME280;38537;47.226;39.702;2023-08-08T00:07:16;99802.47;;;26.57;61.41
52651;BME280;38537;47.226;39.702;2023-08-08T00:09:44;99799.19;;;26.58;61.06
52651;BME280;38537;47.226;39.702;2023-08-08T00:12:11;99800.22;;;26.72;60.75
52651;BME280;38537;47.226;39.702;2023-08-08T00:14:38;99806.66;;;26.79;60.34
52651;BME280;38537;47.226;39.702;2023-08-08T00:17:05;99788.84;;;26.64;60.23
52651;BME280;38537;47.226;39.702;2023-08-08T00:19:33;99784.88;;;26.58;59.89
52651;BME280;38537;47.226;39.702;2023-08-08T00:22:00;99797.38;;;26.68;59.87
52651;BME280;38537;47.226;39.702;2023-08-08T00:24:27;99804.78;;;26.66;59.83
52651;BME280;38537;47.226;39.702;2023-08-08T00:26:55;99807.66;;;26.66;59.73
52651;BME280;38537;47.226;39.702;2023-08-08T00:29:22;99793.88;;;26.57;59.64
52651;BME280;38537;47.226;39.702;2023-08-08T00:31:50;99775.72;;;26.40;59.58
52651;BME280;38537;47.226;39.702;2023-08-08T00:34:18;99804.41;;;26.63;59.12
52651;BME280;38537;47.226;39.702;2023-08-08T00:36:45;99802.31;;;26.68;58.60
52651;BME280;38537;47.226;39.702;2023-08-08T00:39:13;99810.63;;;26.58;58.70
52651;BME280;38537;47.226;39.702;2023-08-08T00:41:40;99801.66;;;26.56;58.57
52651;BME280;38537;47.226;39.702;2023-08-08T00:44:08;99797.56;;;26.57;58.42
52651;BME280;38537;47.226;39.702;2023-08-08T00:46:35;99795.94;;;26.56;58.69
52651;BME280;38537;47.226;39.702;2023-08-08T00:49:04;99806.19;;;26.54;58.59
52651;BME280;38537;47.226;39.702;2023-08-08T00:51:32;99809.84;;;26.58;58.38
52651;BME280;38537;47.226;39.702;2023-08-08T00:53:59;99803.75;;;26.52;58.71
52651;BME280;38537;47.226;39.702;2023-08-08T00:56:27;99803.84;;;26.45;58.38
52651;BME280;38537;47.226;39.702;2023-08-08T00:58:54;99805.69;;;26.28;58.50
52651;BME280;38537;47.226;39.702;2023-08-08T01:01:21;99808.59;;;26.25;58.59
52651;BME280;38537;47.226;39.702;2023-08-08T01:03:49;99809.59;;;26.11;58.80
52651;BME280;38537;47.226;39.702;2023-08-08T01:08:58;99812.56;;;26.01;58.84
52651;BME280;38537;47.226;39.702;2023-08-08T01:11:29;99821.16;;;26.01;58.81
52651;BME280;38537;47.226;39.702;2023-08-08T01:14:00;99822.13;;;25.87;58.90
52651;BME280;38537;47.226;39.702;2023-08-08T01:16:29;99832.44;;;25.77;59.19
52651;BME280;38537;47.226;39.702;2023-08-08T01:18:57;99821.50;;;25.72;59.21
52651;BME280;38537;47.226;39.702;2023-08-08T01:21:27;99822.00;;;25.56;59.21
52651;BME280;38537;47.226;39.702;2023-08-08T01:24:13;99830.63;;;25.53;59.94
52651;BME280;38537;47.226;39.702;2023-08-08T01:26:41;99829.06;;;25.45;59.33
52651;BME280;38537;47.226;39.702;2023-08-08T01:29:08;99837.66;;;25.45;59.34
52651;BME280;38537;47.226;39.702;2023-08-08T01:31:35;99834.81;;;25.41;59.34
52651;BME280;38537;47.226;39.702;2023-08-08T01:34:04;99830.72;;;25.42;58.71
52651;BME280;38537;47.226;39.702;2023-08-08T01:36:48;99842.53;;;25.48;58.67
52651;BME280;38537;47.226;39.702;2023-08-08T01:39:27;99841.72;;;25.47;58.78
52651;BME280;38537;47.226;39.702;2023-08-08T01:41:59;99849.03;;;25.52;58.59
52651;BME280;38537;47.226;39.702;2023-08-08T01:44:28;99847.47;;;25.40;58.16
52651;BME280;38537;47.226;39.702;2023-08-08T01:46:56;99836.84;;;25.44;58.18
52651;BME280;38537;47.226;39.702;2023-08-08T01:49:23;99846.69;;;25.36;58.20
52651;BME280;38537;47.226;39.702;2023-08-08T01:51:51;99856.00;;;25.47;58.48
52651;BME280;38537;47.226;39.702;2023-08-08T01:54:19;99859.97;;;25.64;57.97
52651;BME280;38537;47.226;39.702;2023-08-08T01:56:47;99856.63;;;25.73;57.59
52651;BME280;38537;47.226;39.702;2023-08-08T01:59:14;99854.63;;;25.66;57.02
52651;BME280;38537;47.226;39.702;2023-08-08T02:01:42;99849.38;;;25.57;56.95
52651;BME280;38537;47.226;39.702;2023-08-08T02:04:10;99848.94;;;25.59;57.55
52651;BME280;38537;47.226;39.702;2023-08-08T02:06:37;99856.31;;;25.56;57.57
52651;BME280;38537;47.226;39.702;2023-08-08T02:09:05;99859.66;;;25.51;58.21
52651;BME280;38537;47.226;39.702;2023-08-08T02:11:34;99866.22;;;25.48;58.28
52651;BME280;38537;47.226;39.702;2023-08-08T02:14:03;99882.03;;;25.64;58.09
52651;BME280;38537;47.226;39.702;2023-08-08T02:16:30;99877.13;;;25.64;57.95
52651;BME280;38537;47.226;39.702;2023-08-08T02:18:58;99880.63;;;25.82;58.01
52651;BME280;38537;47.226;39.702;2023-08-08T02:21:26;99864.59;;;25.92;57.38
52651;BME280;38537;47.226;39.702;2023-08-08T02:23:53;99876.03;;;25.92;57.34
52651;BME280;38537;47.226;39.702;2023-08-08T02:26:21;99886.16;;;26.00;57.13
52651;BME280;38537;47.226;39.702;2023-08-08T02:28:48;99882.03;;;26.05;56.88
52651;BME280;38537;47.226;39.702;2023-08-08T02:31:16;99882.88;;;26.02;57.08
52651;BME280;38537;47.226;39.702;2023-08-08T02:33:51;99882.13;;;25.98;56.75
52651;BME280;38537;47.226;39.702;2023-08-08T02:36:18;99860.97;;;25.88;57.10
52651;BME280;38537;47.226;39.702;2023-08-08T02:38:46;99879.03;;;25.78;57.16
52651;BME280;38537;47.226;39.702;2023-08-08T02:41:13;99884.81;;;25.74;57.09
52651;BME280;38537;47.226;39.702;2023-08-08T02:43:41;99877.56;;;25.55;57.31
52651;BME280;38537;47.226;39.702;2023-08-08T02:46:09;99879.31;;;25.46;57.32
52651;BME280;38537;47.226;39.702;2023-08-08T02:48:36;99884.59;;;25.47;57.82
52651;BME280;38537;47.226;39.702;2023-08-08T02:51:04;99876.06;;;25.40;57.94
52651;BME280;38537;47.226;39.702;2023-08-08T02:53:32;99886.66;;;25.43;57.94
52651;BME280;38537;47.226;39.702;2023-08-08T02:55:59;99900.13;;;25.46;57.81
52651;BME280;38537;47.226;39.702;2023-08-08T02:58:30;99892.38;;;25.43;57.65
52651;BME280;38537;47.226;39.702;2023-08-08T03:00:58;99891.06;;;25.55;57.94
52651;BME280;38537;47.226;39.702;2023-08-08T03:03:26;99878.13;;;25.40;57.86
52651;BME280;38537;47.226;39.702;2023-08-08T03:05:54;99891.97;;;25.45;57.96
52651;BME280;38537;47.226;39.702;2023-08-08T03:08:22;99901.00;;;25.40;57.80
52651;BME280;38537;47.226;39.702;2023-08-08T03:10:49;99894.97;;;25.27;57.78
52651;BME280;38537;47.226;39.702;2023-08-08T03:13:17;99885.88;;;25.39;57.82
52651;BME280;38537;47.226;39.702;2023-08-08T03:15:44;99879.00;;;25.33;57.81
52651;BME280;38537;47.226;39.702;2023-08-08T03:18:12;99880.66;;;25.31;57.73
52651;BME280;38537;47.226;39.702;2023-08-08T03:20:39;99899.78;;;25.37;57.40
52651;BME280;38537;47.226;39.702;2023-08-08T03:23:08;99903.44;;;25.38;57.29
52651;BME280;38537;47.226;39.702;2023-08-08T03:25:37;99901.00;;;25.40;57.44
52651;BME280;38537;47.226;39.702;2023-08-08T03:28:05;99902.31;;;25.28;57.29
52651;BME280;38537;47.226;39.702;2023-08-08T03:30:32;99892.97;;;25.20;57.73
52651;BME280;38537;47.226;39.702;2023-08-08T03:33:00;99900.13;;;25.46;57.55
52651;BME280;38537;47.226;39.702;2023-08-08T03:35:28;99881.13;;;25.18;57.44
52651;BME280;38537;47.226;39.702;2023-08-08T03:37:56;99893.38;;;25.19;57.44
52651;BME280;38537;47.226;39.702;2023-08-08T03:40:23;99907.22;;;25.27;57.78
52651;BME280;38537;47.226;39.702;2023-08-08T03:42:51;99908.78;;;25.36;57.80
52651;BME280;38537;47.226;39.702;2023-08-08T03:45:18;99899.91;;;25.23;57.58
52651;BME280;38537;47.226;39.702;2023-08-08T03:47:46;99886.69;;;25.40;57.74
52651;BME280;38537;47.226;39.702;2023-08-08T03:50:13;99902.22;;;25.39;57.81
52651;BME280;38537;47.226;39.702;2023-08-08T03:52:41;99899.34;;;25.42;57.87
52651;BME280;38537;47.226;39.702;2023-08-08T03:55:11;99893.19;;;25.44;57.50
52651;BME280;38537;47.226;39.702;2023-08-08T03:57:39;99894.41;;;25.46;57.61
52651;BME280;38537;47.226;39.702;2023-08-08T04:00:07;99908.56;;;25.60;57.01
52651;BME280;38537;47.226;39.702;2023-08-08T04:02:41;99894.81;;;25.45;56.46
52651;BME280;38537;47.226;39.702;2023-08-08T04:05:09;99901.38;;;25.42;56.24
52651;BME280;38537;47.226;39.702;2023-08-08T04:07:38;99894.53;;;25.32;55.74
52651;BME280;38537;47.226;39.702;2023-08-08T04:10:06;99894.09;;;25.34;55.18
52651;BME280;38537;47.226;39.702;2023-08-08T04:12:33;99899.34;;;25.39;55.16
52651;BME280;38537;47.226;39.702;2023-08-08T04:15:01;99917.25;;;25.50;55.07
52651;BME280;38537;47.226;39.702;2023-08-08T04:17:32;99904.97;;;25.53;55.29
52651;BME280;38537;47.226;39.702;2023-08-08T04:20:05;99903.75;;;25.54;54.86
52651;BME280;38537;47.226;39.702;2023-08-08T04:22:33;99920.44;;;25.59;54.98
52651;BME280;38537;47.226;39.702;2023-08-08T04:25:01;99921.25;;;25.63;54.65
52651;BME280;38537;47.226;39.702;2023-08-08T04:27:30;99904.91;;;25.64;54.85
52651;BME280;38537;47.226;39.702;2023-08-08T04:29:57;99923.13;;;25.80;54.74
52651;BME280;38537;47.226;39.702;2023-08-08T04:32:24;99903.75;;;25.99;54.58
52651;BME280;38537;47.226;39.702;2023-08-08T04:34:52;99918.81;;;26.06;53.97
52651;BME280;38537;47.226;39.702;2023-08-08T04:37:19;99924.50;;;26.10;53.99
52651;BME280;38537;47.226;39.702;2023-08-08T04:39:46;99925.31;;;26.10;53.66
52651;BME280;38537;47.226;39.702;2023-08-08T04:42:14;99916.38;;;26.05;54.13
52651;BME280;38537;47.226;39.702;2023-08-08T04:44:41;99906.50;;;26.09;53.93
52651;BME280;38537;47.226;39.702;2023-08-08T04:47:09;99926.34;;;26.31;54.02
52651;BME280;38537;47.226;39.702;2023-08-08T04:49:36;99909.16;;;26.27;53.75
52651;BME280;38537;47.226;39.702;2023-08-08T04:52:03;99931.50;;;26.43;53.66
52651;BME280;38537;47.226;39.702;2023-08-08T04:54:31;99936.81;;;26.44;52.77
52651;BME280;38537;47.226;39.702;2023-08-08T04:56:58;99924.09;;;26.49;52.61
52651;BME280;38537;47.226;39.702;2023-08-08T04:59:26;99922.38;;;26.55;52.17
52651;BME280;38537;47.226;39.702;2023-08-08T05:01:53;99915.38;;;26.59;51.58
52651;BME280;38537;47.226;39.702;2023-08-08T05:04:20;99919.44;;;26.62;51.28
52651;BME280;38537;47.226;39.702;2023-08-08T05:06:47;99913.38;;;26.56;51.13
52651;BME280;38537;47.226;39.702;2023-08-08T05:09:15;99907.09;;;26.65;50.94
52651;BME280;38537;47.226;39.702;2023-08-08T05:11:42;99927.28;;;26.85;50.21
52651;BME280;38537;47.226;39.702;2023-08-08T05:14:10;99914.97;;;26.88;49.68
52651;BME280;38537;47.226;39.702;2023-08-08T05:16:37;99918.56;;;26.99;49.59
52651;BME280;38537;47.226;39.702;2023-08-08T05:19:05;99903.84;;;26.97;49.82
52651;BME280;38537;47.226;39.702;2023-08-08T05:21:32;99920.34;;;27.16;49.64
52651;BME280;38537;47.226;39.702;2023-08-08T05:23:59;99921.81;;;27.28;49.53
52651;BME280;38537;47.226;39.702;2023-08-08T05:26:27;99907.84;;;27.30;49.11
52651;BME280;38537;47.226;39.702;2023-08-08T05:28:54;99915.03;;;27.42;49.04
52651;BME280;38537;47.226;39.702;2023-08-08T05:31:21;99908.75;;;27.50;49.00
52651;BME280;38537;47.226;39.702;2023-08-08T05:33:49;99907.94;;;27.50;48.68
52651;BME280;38537;47.226;39.702;2023-08-08T05:36:16;99911.03;;;27.62;48.76
52651;BME280;38537;47.226;39.702;2023-08-08T05:38:43;99907.88;;;27.80;48.39
52651;BME280;38537;47.226;39.702;2023-08-08T05:41:10;99910.56;;;27.91;48.29
52651;BME280;38537;47.226;39.702;2023-08-08T05:43:38;99911.22;;;27.98;48.10
52651;BME280;38537;47.226;39.702;2023-08-08T05:46:05;99920.41;;;28.13;48.21
52651;BME280;38537;47.226;39.702;2023-08-08T05:48:32;99911.31;;;28.15;47.44
52651;BME280;38537;47.226;39.702;2023-08-08T05:50:59;99915.59;;;28.30;47.68
52651;BME280;38537;47.226;39.702;2023-08-08T05:53:29;99919.41;;;28.43;47.24
52651;BME280;38537;47.226;39.702;2023-08-08T05:55:57;99915.16;;;28.51;46.83
52651;BME280;38537;47.226;39.702;2023-08-08T05:58:24;99906.91;;;28.53;46.62
52651;BME280;38537;47.226;39.702;2023-08-08T06:00:51;99918.53;;;28.66;46.90
52651;BME280;38537;47.226;39.702;2023-08-08T06:03:19;99904.91;;;28.70;46.07
52651;BME280;38537;47.226;39.702;2023-08-08T06:05:46;99915.66;;;28.86;46.04
52651;BME280;38537;47.226;39.702;2023-08-08T06:08:14;99905.28;;;28.92;46.14
52651;BME280;38537;47.226;39.702;2023-08-08T06:10:43;99915.63;;;29.06;45.80
52651;BME280;38537;47.226;39.702;2023-08-08T06:13:10;99883.97;;;28.89;45.70
52651;BME280;38537;47.226;39.702;2023-08-08T06:15:38;99926.16;;;29.12;45.29
52651;BME280;38537;47.226;39.702;2023-08-08T06:18:05;99912.59;;;29.13;45.04
52651;BME280;38537;47.226;39.702;2023-08-08T06:20:33;99923.50;;;29.21;45.59
52651;BME280;38537;47.226;39.702;2023-08-08T06:23:00;99904.00;;;29.29;45.33
52651;BME280;38537;47.226;39.702;2023-08-08T06:25:28;99906.66;;;29.40;45.56
52651;BME280;38537;47.226;39.702;2023-08-08T06:27:55;99913.69;;;29.55;45.34
52651;BME280;38537;47.226;39.702;2023-08-08T06:30:22;99908.19;;;29.60;45.32
52651;BME280;38537;47.226;39.702;2023-08-08T06:32:49;99908.19;;;29.60;45.94
52651;BME280;38537;47.226;39.702;2023-08-08T06:35:17;99916.19;;;29.69;46.54
52651;BME280;38537;47.226;39.702;2023-08-08T06:37:45;99917.09;;;29.82;45.02
52651;BME280;38537;47.226;39.702;2023-08-08T06:40:14;99913.69;;;29.87;45.62
52651;BME280;38537;47.226;39.702;2023-08-08T06:42:42;99922.47;;;29.96;44.21
52651;BME280;38537;47.226;39.702;2023-08-08T06:45:10;99920.16;;;30.08;45.43
52651;BME280;38537;47.226;39.702;2023-08-08T06:47:37;99904.84;;;30.11;43.26
52651;BME280;38537;47.226;39.702;2023-08-08T06:50:05;99905.91;;;30.17;44.97
52651;BME280;38537;47.226;39.702;2023-08-08T06:52:33;99907.25;;;30.28;45.15
52651;BME280;38537;47.226;39.702;2023-08-08T06:55:01;99913.25;;;30.34;41.84
52651;BME280;38537;47.226;39.702;2023-08-08T06:57:33;99923.66;;;30.44;40.86
52651;BME280;38537;47.226;39.702;2023-08-08T07:00:02;99917.00;;;30.47;43.18
52651;BME280;38537;47.226;39.702;2023-08-08T07:02:34;99911.81;;;30.55;42.88
52651;BME280;38537;47.226;39.702;2023-08-08T07:05:01;99911.75;;;30.58;41.54
52651;BME280;38537;47.226;39.702;2023-08-08T07:07:31;99907.25;;;30.57;42.03
52651;BME280;38537;47.226;39.702;2023-08-08T07:10:00;99913.97;;;30.67;40.53
52651;BME280;38537;47.226;39.702;2023-08-08T07:12:30;99909.38;;;30.70;39.04
52651;BME280;38537;47.226;39.702;2023-08-08T07:14:57;99893.78;;;30.67;38.60
52651;BME280;38537;47.226;39.702;2023-08-08T07:17:25;99904.78;;;30.72;37.84
52651;BME280;38537;47.226;39.702;2023-08-08T07:19:52;99909.72;;;30.72;38.50
52651;BME280;38537;47.226;39.702;2023-08-08T07:22:19;99900.38;;;30.80;37.54
52651;BME280;38537;47.226;39.702;2023-08-08T07:24:47;99895.69;;;30.86;37.61
52651;BME280;38537;47.226;39.702;2023-08-08T07:27:15;99909.88;;;30.93;37.21
52651;BME280;38537;47.226;39.702;2023-08-08T07:29:43;99906.31;;;31.02;36.47
52651;BME280;38537;47.226;39.702;2023-08-08T07:32:10;99889.91;;;30.99;36.57
52651;BME280;38537;47.226;39.702;2023-08-08T07:34:42;99889.00;;;31.02;36.53
52651;BME280;38537;47.226;39.702;2023-08-08T07:37:09;99899.06;;;31.10;35.53
52651;BME280;38537;47.226;39.702;2023-08-08T07:39:37;99885.56;;;31.07;35.95
52651;BME280;38537;47.226;39.702;2023-08-08T07:42:05;99890.06;;;31.08;36.70
52651;BME280;38537;47.226;39.702;2023-08-08T07:44:32;99884.56;;;31.14;36.91
52651;BME280;38537;47.226;39.702;2023-08-08T07:47:01;99907.63;;;31.26;34.96
52651;BME280;38537;47.226;39.702;2023-08-08T07:49:29;99897.13;;;31.20;33.65
52651;BME280;38537;47.226;39.702;2023-08-08T07:51:56;99887.34;;;31.17;33.92
52651;BME280;38537;47.226;39.702;2023-08-08T07:54:25;99895.38;;;31.22;33.46
52651;BME280;38537;47.226;39.702;2023-08-08T07:56:53;99901.84;;;31.26;33.39
52651;BME280;38537;47.226;39.702;2023-08-08T07:59:20;99907.28;;;31.37;33.51
52651;BME280;38537;47.226;39.702;2023-08-08T08:01:48;99902.34;;;31.38;32.76
52651;BME280;38537;47.226;39.702;2023-08-08T08:04:15;99909.84;;;31.35;33.09
52651;BME280;38537;47.226;39.702;2023-08-08T08:06:42;99903.81;;;31.29;32.55
52651;BME280;38537;47.226;39.702;2023-08-08T08:09:11;99908.31;;;31.30;32.50
52651;BME280;38537;47.226;39.702;2023-08-08T08:11:39;99885.25;;;31.30;33.14
52651;BME280;38537;47.226;39.702;2023-08-08T08:14:06;99892.63;;;31.44;33.22
52651;BME280;38537;47.226;39.702;2023-08-08T08:16:34;99904.84;;;31.48;32.98
52651;BME280;38537;47.226;39.702;2023-08-08T08:19:02;99909.81;;;31.48;32.71
52651;BME280;38537;47.226;39.702;2023-08-08T08:21:30;99888.56;;;31.42;32.87
52651;BME280;38537;47.226;39.702;2023-08-08T08:23:57;99886.72;;;31.48;32.97
52651;BME280;38537;47.226;39.702;2023-08-08T08:26:24;99895.41;;;31.60;33.16
52651;BME280;38537;47.226;39.702;2023-08-08T08:28:52;99895.41;;;31.60;32.71
52651;BME280;38537;47.226;39.702;2023-08-08T08:31:19;99903.00;;;31.54;32.62
52651;BME280;38537;47.226;39.702;2023-08-08T08:33:47;99894.59;;;31.60;33.21
52651;BME280;38537;47.226;39.702;2023-08-08T08:36:14;99890.44;;;31.61;33.12
52651;BME280;38537;47.226;39.702;2023-08-08T08:38:42;99882.44;;;31.65;32.87
52651;BME280;38537;47.226;39.702;2023-08-08T08:41:11;99886.25;;;31.75;33.19
52651;BME280;38537;47.226;39.702;2023-08-08T08:43:41;99879.00;;;31.70;33.41
52651;BME280;38537;47.226;39.702;2023-08-08T08:46:11;99894.00;;;31.78;32.84
52651;BME280;38537;47.226;39.702;2023-08-08T08:48:38;99886.50;;;31.80;33.87
52651;BME280;38537;47.226;39.702;2023-08-08T08:51:06;99876.28;;;31.88;34.00
52651;BME280;38537;47.226;39.702;2023-08-08T08:53:34;99883.66;;;32.02;33.79
52651;BME280;38537;47.226;39.702;2023-08-08T08:56:07;99871.63;;;32.03;32.26
52651;BME280;38537;47.226;39.702;2023-08-08T08:58:35;99861.94;;;31.97;31.93
52651;BME280;38537;47.226;39.702;2023-08-08T09:01:03;99879.69;;;32.09;32.35
52651;BME280;38537;47.226;39.702;2023-08-08T09:03:34;99882.56;;;32.09;31.90
52651;BME280;38537;47.226;39.702;2023-08-08T09:06:03;99879.56;;;32.12;31.76
52651;BME280;38537;47.226;39.702;2023-08-08T09:08:31;99873.91;;;32.09;31.72
52651;BME280;38537;47.226;39.702;2023-08-08T09:10:59;99868.88;;;32.00;30.74
52651;BME280;38537;47.226;39.702;2023-08-08T09:13:36;99871.47;;;32.07;29.91
52651;BME280;38537;47.226;39.702;2023-08-08T09:16:05;99875.19;;;32.08;30.14
52651;BME280;38537;47.226;39.702;2023-08-08T09:18:34;99871.34;;;32.11;30.38
52651;BME280;38537;47.226;39.702;2023-08-08T09:21:02;99863.38;;;32.15;30.94
52651;BME280;38537;47.226;39.702;2023-08-08T09:23:30;99860.34;;;32.18;31.37
52651;BME280;38537;47.226;39.702;2023-08-08T09:25:57;99869.63;;;32.26;31.42
52651;BME280;38537;47.226;39.702;2023-08-08T09:28:25;99851.94;;;32.24;31.90
52651;BME280;38537;47.226;39.702;2023-08-08T09:30:53;99843.59;;;32.26;32.11
52651;BME280;38537;47.226;39.702;2023-08-08T09:33:21;99865.84;;;32.38;31.74
52651;BME280;38537;47.226;39.702;2023-08-08T09:35:49;99868.81;;;32.47;32.12
52651;BME280;38537;47.226;39.702;2023-08-08T09:38:19;99874.31;;;32.54;32.07
52651;BME280;38537;47.226;39.702;2023-08-08T09:40:47;99850.44;;;32.63;31.71
52651;BME280;38537;47.226;39.702;2023-08-08T09:43:15;99869.00;;;32.75;30.98
52651;BME280;38537;47.226;39.702;2023-08-08T09:45:44;99874.66;;;32.78;29.76
52651;BME280;38537;47.226;39.702;2023-08-08T09:48:12;99869.06;;;32.84;30.13
52651;BME280;38537;47.226;39.702;2023-08-08T09:50:40;99872.63;;;32.88;29.48
52651;BME280;38537;47.226;39.702;2023-08-08T09:53:08;99859.06;;;32.76;29.00
52651;BME280;38537;47.226;39.702;2023-08-08T09:55:37;99869.53;;;32.82;30.24
52651;BME280;38537;47.226;39.702;2023-08-08T09:58:05;99875.19;;;32.86;29.62
52651;BME280;38537;47.226;39.702;2023-08-08T10:00:32;99865.84;;;32.82;29.18
52651;BME280;38537;47.226;39.702;2023-08-08T10:03:01;99858.78;;;32.83;29.94
52651;BME280;38537;47.226;39.702;2023-08-08T10:05:30;99862.72;;;32.98;30.03
52651;BME280;38537;47.226;39.702;2023-08-08T10:07:57;99854.91;;;33.08;30.48
52651;BME280;38537;47.226;39.702;2023-08-08T10:10:25;99862.66;;;33.20;29.78
52651;BME280;38537;47.226;39.702;2023-08-08T10:12:53;99865.50;;;33.32;30.38
52651;BME280;38537;47.226;39.702;2023-08-08T10:15:25;99868.72;;;33.44;30.39
52651;BME280;38537;47.226;39.702;2023-08-08T10:17:57;99861.47;;;33.39;30.32
52651;BME280;38537;47.226;39.702;2023-08-08T10:20:25;99859.41;;;33.49;30.85
52651;BME280;38537;47.226;39.702;2023-08-08T10:22:53;99869.91;;;33.55;30.27
52651;BME280;38537;47.226;39.702;2023-08-08T10:25:27;99873.44;;;33.59;30.71
52651;BME280;38537;47.226;39.702;2023-08-08T10:28:07;99866.22;;;33.64;29.70
52651;BME280;38537;47.226;39.702;2023-08-08T10:30:43;99882.16;;;33.68;29.39
52651;BME280;38537;47.226;39.702;2023-08-08T10:33:22;99875.69;;;33.64;28.61
52651;BME280;38537;47.226;39.702;2023-08-08T10:36:01;99871.28;;;33.42;28.10
52651;BME280;38537;47.226;39.702;2023-08-08T10:38:43;99871.28;;;33.42;29.25
52651;BME280;38537;47.226;39.702;2023-08-08T10:41:15;99863.88;;;33.31;28.47
52651;BME280;38537;47.226;39.702;2023-08-08T10:44:01;99864.50;;;33.26;28.06
52651;BME280;38537;47.226;39.702;2023-08-08T10:46:31;99881.41;;;33.06;27.40
52651;BME280;38537;47.226;39.702;2023-08-08T10:49:01;99875.69;;;32.93;27.86
52651;BME280;38537;47.226;39.702;2023-08-08T10:51:41;99863.66;;;32.95;28.48
52651;BME280;38537;47.226;39.702;2023-08-08T10:54:17;99885.84;;;32.98;27.96
52651;BME280;38537;47.226;39.702;2023-08-08T10:56:54;99875.88;;;32.90;27.01
52651;BME280;38537;47.226;39.702;2023-08-08T10:59:44;99872.97;;;32.90;27.27
52651;BME280;38537;47.226;39.702;2023-08-08T11:02:10;99860.91;;;32.91;27.00
52651;BME280;38537;47.226;39.702;2023-08-08T11:04:39;99862.78;;;33.07;27.77
52651;BME280;38537;47.226;39.702;2023-08-08T11:07:08;99860.22;;;33.09;28.03
52651;BME280;38537;47.226;39.702;2023-08-08T11:09:37;99862.16;;;33.12;27.79
52651;BME280;38537;47.226;39.702;2023-08-08T11:12:05;99863.75;;;33.13;27.47
52651;BME280;38537;47.226;39.702;2023-08-08T11:14:34;99842.03;;;33.09;28.02
52651;BME280;38537;47.226;39.702;2023-08-08T11:17:01;99853.63;;;33.09;28.09
52651;BME280;38537;47.226;39.702;2023-08-08T11:19:28;99864.06;;;33.15;28.32
52651;BME280;38537;47.226;39.702;2023-08-08T11:21:57;99843.78;;;33.06;27.41
52651;BME280;38537;47.226;39.702;2023-08-08T11:24:25;99852.94;;;33.04;27.63
52651;BME280;38537;47.226;39.702;2023-08-08T11:26:58;99849.59;;;33.15;27.74
52651;BME280;38537;47.226;39.702;2023-08-08T11:29:25;99843.69;;;33.19;28.00
52651;BME280;38537;47.226;39.702;2023-08-08T11:32:00;99860.19;;;33.40;28.86
52651;BME280;38537;47.226;39.702;2023-08-08T11:34:32;99852.16;;;33.44;27.61
52651;BME280;38537;47.226;39.702;2023-08-08T11:37:00;99867.00;;;33.55;27.95
52651;BME280;38537;47.226;39.702;2023-08-08T11:39:28;99855.25;;;33.59;27.44
52651;BME280;38537;47.226;39.702;2023-08-08T11:41:56;99859.75;;;33.60;28.12
52651;BME280;38537;47.226;39.702;2023-08-08T11:44:25;99845.78;;;33.67;28.54
52651;BME280;38537;47.226;39.702;2023-08-08T11:46:53;99839.22;;;33.76;28.35
52651;BME280;38537;47.226;39.702;2023-08-08T11:49:20;99834.22;;;33.77;28.35
52651;BME280;38537;47.226;39.702;2023-08-08T11:51:48;99848.28;;;33.96;28.35
52651;BME280;38537;47.226;39.702;2023-08-08T11:54:16;99843.75;;;33.86;27.20
52651;BME280;38537;47.226;39.702;2023-08-08T11:56:43;99857.91;;;33.84;27.47
52651;BME280;38537;47.226;39.702;2023-08-08T11:59:11;99849.53;;;33.86;27.74
52651;BME280;38537;47.226;39.702;2023-08-08T12:01:41;99855.63;;;33.79;26.85
52651;BME280;38537;47.226;39.702;2023-08-08T12:04:08;99846.59;;;33.68;26.02
52651;BME280;38537;47.226;39.702;2023-08-08T12:06:40;99855.94;;;33.72;26.71
52651;BME280;38537;47.226;39.702;2023-08-08T12:09:07;99846.25;;;33.66;26.83
52651;BME280;38537;47.226;39.702;2023-08-08T12:11:35;99843.88;;;33.74;26.61
52651;BME280;38537;47.226;39.702;2023-08-08T12:14:09;99853.06;;;33.81;26.46
52651;BME280;38537;47.226;39.702;2023-08-08T12:16:38;99840.34;;;33.79;27.10
52651;BME280;38537;47.226;39.702;2023-08-08T12:19:10;99844.22;;;33.85;27.12
52651;BME280;38537;47.226;39.702;2023-08-08T12:21:38;99853.09;;;33.90;26.79
52651;BME280;38537;47.226;39.702;2023-08-08T12:24:06;99852.44;;;33.86;27.36
52651;BME280;38537;47.226;39.702;2023-08-08T12:26:33;99852.31;;;33.99;27.50
52651;BME280;38537;47.226;39.702;2023-08-08T12:29:00;99844.41;;;34.09;27.19
52651;BME280;38537;47.226;39.702;2023-08-08T12:31:28;99836.34;;;34.22;27.75
52651;BME280;38537;47.226;39.702;2023-08-08T12:33:55;99843.78;;;34.41;27.60
52651;BME280;38537;47.226;39.702;2023-08-08T12:36:22;99840.53;;;34.48;26.71
52651;BME280;38537;47.226;39.702;2023-08-08T12:38:51;99842.97;;;34.31;27.14
52651;BME280;38537;47.226;39.702;2023-08-08T12:41:18;99851.16;;;34.24;27.20
52651;BME280;38537;47.226;39.702;2023-08-08T12:43:46;99845.22;;;34.09;26.73
52651;BME280;38537;47.226;39.702;2023-08-08T12:46:13;99843.63;;;33.99;27.00
52651;BME280;38537;47.226;39.702;2023-08-08T12:48:40;99839.25;;;33.85;27.10
52651;BME280;38537;47.226;39.702;2023-08-08T12:51:07;99840.81;;;33.77;27.66
52651;BME280;38537;47.226;39.702;2023-08-08T12:53:35;99851.13;;;33.78;27.34
52651;BME280;38537;47.226;39.702;2023-08-08T12:56:02;99839.19;;;33.67;27.58
52651;BME280;38537;47.226;39.702;2023-08-08T12:58:30;99839.00;;;33.61;27.64
52651;BME280;38537;47.226;39.702;2023-08-08T13:00:57;99839.38;;;33.72;28.19